createdAt,value
2022-10-05T00:00:26.198Z,99954.56
2022-10-05T00:01:34.617Z,99961.23
2022-10-05T00:02:37.820Z,99949.28
2022-10-05T00:03:39.660Z,99947.45
2022-10-05T00:04:41.434Z,99959.74
2022-10-05T00:05:45.155Z,99950.23
2022-10-05T00:06:59.848Z,99958.05
2022-10-05T00:08:11.334Z,99961.75
2022-10-05T00:09:17.347Z,99963.78
2022-10-05T00:10:20.070Z,99959.81
2022-10-05T00:11:22.222Z,99962.37
2022-10-05T00:12:26.236Z,99962.55
2022-10-05T00:13:30.495Z,99967.88
2022-10-05T00:14:35.100Z,99968.83
2022-10-05T00:15:36.989Z,99966.23
2022-10-05T00:16:39.164Z,99964.66
2022-10-05T00:17:43.039Z,99967.19
2022-10-05T00:18:50.773Z,99958.81
2022-10-05T00:19:53.562Z,99958.81
2022-10-05T00:20:56.311Z,99967.39
2022-10-05T00:22:00.782Z,99964.83
2022-10-05T00:23:05.943Z,99972.66
2022-10-05T00:24:10.186Z,99970.13
2022-10-05T00:25:18.074Z,99971.83
2022-10-05T00:26:25.550Z,99967.62
2022-10-05T00:27:33.599Z,99969.38
2022-10-05T00:28:35.493Z,99966.92
2022-10-05T00:29:37.516Z,99971.30
2022-10-05T00:30:40.079Z,99975.65
2022-10-05T00:31:43.798Z,99981.72
2022-10-05T00:32:46.445Z,99974.84
2022-10-05T00:33:49.363Z,99973.14
2022-10-05T00:34:51.840Z,99979.25
2022-10-05T00:35:54.914Z,99975.78
2022-10-05T00:36:58.006Z,99975.90
2022-10-05T00:38:00.046Z,99974.20
2022-10-05T00:39:02.856Z,99975.90
2022-10-05T00:40:08.729Z,99975.90
2022-10-05T00:41:48.128Z,99979.38
2022-10-05T00:43:18.256Z,99987.16
2022-10-05T00:44:48.415Z,99990.70
2022-10-05T00:45:56.895Z,99989.80
2022-10-05T00:47:10.061Z,99992.39
2022-10-05T00:48:21.618Z,99993.31
2022-10-05T00:50:02.499Z,99990.70
2022-10-05T00:51:11.685Z,99995.90
2022-10-05T00:52:33.933Z,99997.71
2022-10-05T00:53:48.695Z,99998.60
2022-10-05T00:55:09.018Z,99999.55
2022-10-05T00:56:17.356Z,100000.30
2022-10-05T00:57:45.719Z,100005.38
2022-10-05T00:59:09.866Z,100009.61
2022-10-05T01:00:19.292Z,100005.30
2022-10-05T01:01:51.623Z,100011.31
2022-10-05T01:03:06.803Z,100018.19
2022-10-05T01:04:30.199Z,100022.35
2022-10-05T01:05:41.698Z,100008.50
2022-10-05T01:07:09.958Z,100018.75
2022-10-05T01:08:28.630Z,100028.16
2022-10-05T01:09:40.283Z,100025.37
2022-10-05T01:10:48.820Z,100021.77
2022-10-05T01:12:25.045Z,100021.77
2022-10-05T01:13:39.610Z,100026.06
2022-10-05T01:14:47.892Z,100018.98
2022-10-05T01:16:10.390Z,100032.75
2022-10-05T01:17:28.006Z,100028.38
2022-10-05T01:19:02.696Z,100030.02
2022-10-05T01:20:17.689Z,100036.04
2022-10-05T01:21:25.635Z,100032.63
2022-10-05T01:23:01.525Z,100030.85
2022-10-05T01:24:21.614Z,100037.68
2022-10-05T01:25:32.895Z,100045.41
2022-10-05T01:26:56.415Z,100053.16
2022-10-05T01:28:07.968Z,100042.81
2022-10-05T01:29:16.685Z,100062.66
2022-10-05T01:30:21.008Z,100043.59
2022-10-05T01:31:29.795Z,100058.26
2022-10-05T01:32:44.564Z,100059.12
2022-10-05T01:33:50.568Z,100065.14
2022-10-05T01:35:21.523Z,100046.91
2022-10-05T01:36:30.109Z,100054.58
2022-10-05T01:37:50.424Z,100056.27
2022-10-05T01:38:56.492Z,100067.59
2022-10-05T01:40:08.247Z,100058.92
2022-10-05T01:41:19.942Z,100065.06
2022-10-05T01:42:54.957Z,100060.83
2022-10-05T01:44:12.590Z,100060.83
2022-10-05T01:45:21.075Z,100068.63
2022-10-05T01:46:26.680Z,100062.49
2022-10-05T01:47:44.691Z,100059.01
2022-10-05T01:49:10.333Z,100081.45
2022-10-05T01:50:28.587Z,100083.16
2022-10-05T01:51:44.885Z,100074.56
2022-10-05T01:52:50.465Z,100081.45
2022-10-05T01:54:05.325Z,100100.50
2022-10-05T01:55:20.230Z,100095.29
2022-10-05T01:56:26.094Z,100086.56
2022-10-05T01:57:52.586Z,100097.02
2022-10-05T01:59:27.316Z,100090.05
2022-10-05T02:00:34.224Z,100090.05
2022-10-05T02:03:09.448Z,100108.61
2022-10-05T02:04:29.583Z,100105.49
2022-10-05T02:05:42.479Z,100096.94
2022-10-05T02:06:49.158Z,100110.67
2022-10-05T02:07:55.345Z,100108.20
2022-10-05T02:09:09.865Z,100109.98
2022-10-05T02:10:21.877Z,100109.09
2022-10-05T02:11:23.960Z,100103.07
2022-10-05T02:12:29.579Z,100114.20
2022-10-05T02:13:52.231Z,100113.33
2022-10-05T02:14:57.929Z,100109.01
2022-10-05T02:16:20.040Z,100105.49
2022-10-05T02:17:25.665Z,100115.87
2022-10-05T02:18:31.287Z,100133.13
2022-10-05T02:19:38.649Z,100134.13
2022-10-05T02:20:43.710Z,100124.70
2022-10-05T02:21:52.426Z,100130.64
2022-10-05T02:23:01.415Z,100131.54
2022-10-05T02:24:07.022Z,100142.72
2022-10-05T02:26:48.306Z,100145.91
2022-10-05T02:28:14.696Z,100140.20
2022-10-05T02:29:20.744Z,100142.75
2022-10-05T02:30:23.825Z,100128.13
2022-10-05T02:31:30.576Z,100121.16
2022-10-05T02:32:49.682Z,100157.55
2022-10-05T02:33:51.432Z,100140.29
2022-10-05T02:34:58.382Z,100150.77
2022-10-05T02:37:39.568Z,100141.72
2022-10-05T02:38:48.331Z,100145.59
2022-10-05T02:40:10.269Z,100143.80
2022-10-05T02:41:49.909Z,100143.00
2022-10-05T02:42:58.772Z,100154.17
2022-10-05T02:44:20.747Z,100143.80
2022-10-05T02:45:29.384Z,100158.50
2022-10-05T02:46:37.979Z,100167.98
2022-10-05T02:47:49.513Z,100158.50
2022-10-05T02:49:13.624Z,100166.33
2022-10-05T02:50:35.630Z,100163.73
2022-10-05T02:51:47.037Z,100155.91
2022-10-05T02:53:04.485Z,100175.00
2022-10-05T02:54:21.986Z,100166.33
2022-10-05T02:55:44.983Z,100173.30
2022-10-05T02:56:50.666Z,100155.14
2022-10-05T02:58:14.587Z,100157.73
2022-10-05T03:00:33.726Z,100146.16
2022-10-05T03:01:49.394Z,100159.44
2022-10-05T03:03:04.551Z,100158.50
2022-10-05T03:04:16.187Z,100170.66
2022-10-05T03:05:31.331Z,100160.33
2022-10-05T03:06:37.248Z,100183.69
2022-10-05T03:07:51.816Z,100169.97
2022-10-05T03:09:03.729Z,100193.37
2022-10-05T03:10:09.867Z,100159.67
2022-10-05T03:11:21.077Z,100163.97
2022-10-05T03:12:51.010Z,100170.86
2022-10-05T03:14:10.142Z,100163.27
2022-10-05T03:15:24.663Z,100168.45
2022-10-05T03:16:42.656Z,100165.91
2022-10-05T03:17:51.130Z,100170.41
2022-10-05T03:18:57.020Z,100173.81
2022-10-05T03:20:22.582Z,100190.31
2022-10-05T03:21:54.994Z,100171.30
2022-10-05T03:23:00.494Z,100182.41
2022-10-05T03:24:21.380Z,100179.81
2022-10-05T03:27:24.737Z,100196.08
2022-10-05T03:28:55.401Z,100202.45
2022-10-05T03:30:04.028Z,100199.05
2022-10-05T03:31:25.183Z,100199.98
2022-10-05T03:32:31.921Z,100203.29
2022-10-05T03:33:41.541Z,100201.62
2022-10-05T03:35:13.526Z,100203.39
2022-10-05T03:36:31.536Z,100199.98
2022-10-05T03:37:44.371Z,100196.44
2022-10-05T03:39:01.888Z,100194.80
2022-10-05T03:40:27.693Z,100191.43
2022-10-05T03:41:36.343Z,100187.01
2022-10-05T03:42:44.924Z,100193.97
2022-10-05T03:44:13.300Z,100193.10
2022-10-05T03:45:25.086Z,100195.74
2022-10-05T03:46:40.522Z,100193.97
2022-10-05T03:47:49.066Z,100198.39
2022-10-05T03:50:22.920Z,100192.92
2022-10-05T03:51:35.323Z,100202.75
2022-10-05T03:52:41.034Z,100191.50
2022-10-05T03:53:49.468Z,100219.19
2022-10-05T03:55:08.218Z,100217.48
2022-10-05T03:56:23.493Z,100212.30
2022-10-05T03:57:35.704Z,100221.00
2022-10-05T03:58:44.345Z,100208.93
2022-10-05T03:59:56.371Z,100203.75
2022-10-05T04:01:02.585Z,100219.19
2022-10-05T04:02:08.819Z,100209.71
2022-10-05T04:03:36.877Z,100224.48
2022-10-05T04:04:48.603Z,100219.30
2022-10-05T04:05:57.093Z,100209.00
2022-10-05T04:07:00.642Z,100216.77
2022-10-05T04:08:19.132Z,100204.58
2022-10-05T04:09:31.198Z,100204.69
2022-10-05T04:10:36.891Z,100211.64
2022-10-05T04:11:48.002Z,100212.58
2022-10-05T04:13:11.721Z,100213.52
2022-10-05T04:15:43.117Z,100221.07
2022-10-05T04:16:49.648Z,100225.72
2022-10-05T04:17:55.566Z,100205.91
2022-10-05T04:19:01.185Z,100212.81
2022-10-05T04:20:28.515Z,100206.80
2022-10-05T04:21:49.525Z,100206.80
2022-10-05T04:23:16.969Z,100207.64
2022-10-05T04:24:22.468Z,100204.16
2022-10-05T04:25:40.648Z,100211.11
2022-10-05T04:26:49.399Z,100209.41
2022-10-05T04:28:01.703Z,100209.41
2022-10-05T04:29:07.860Z,100228.31
2022-10-05T04:30:18.692Z,100212.87
2022-10-05T04:31:43.474Z,100226.66
2022-10-05T04:32:49.265Z,100226.66
2022-10-05T04:33:56.188Z,100238.66
2022-10-05T04:35:25.220Z,100226.59
2022-10-05T04:36:34.013Z,100234.27
2022-10-05T04:37:51.185Z,100234.20
2022-10-05T04:38:57.013Z,100228.89
2022-10-05T04:40:15.719Z,100235.56
2022-10-05T04:41:55.400Z,100236.38
2022-10-05T04:43:18.405Z,100244.10
2022-10-05T04:44:44.991Z,100241.22
2022-10-05T04:45:53.873Z,100260.17
2022-10-05T04:47:18.031Z,100242.03
2022-10-05T04:48:32.719Z,100237.63
2022-10-05T04:50:03.015Z,100250.59
2022-10-05T04:51:09.609Z,100243.70
2022-10-05T04:52:24.207Z,100251.41
2022-10-05T04:53:32.803Z,100248.77
2022-10-05T04:54:55.166Z,100269.55
2022-10-05T04:56:06.688Z,100266.20
2022-10-05T04:57:22.399Z,100258.47
2022-10-05T04:58:58.751Z,100273.98
2022-10-05T05:00:04.981Z,100258.48
2022-10-05T05:01:25.998Z,100278.05
2022-10-05T05:02:35.919Z,100280.74
2022-10-05T05:03:44.629Z,100279.88
2022-10-05T05:04:51.995Z,100276.33
2022-10-05T05:06:28.647Z,100276.27
2022-10-05T05:08:00.708Z,100294.42
2022-10-05T05:09:06.411Z,100297.83
2022-10-05T05:10:34.332Z,100292.65
2022-10-05T05:12:05.823Z,100302.95
2022-10-05T05:13:20.671Z,100303.80
2022-10-05T05:14:32.411Z,100303.91
2022-10-05T05:15:44.371Z,100304.67
2022-10-05T05:16:59.660Z,100309.77
2022-10-05T05:18:34.277Z,100311.55
2022-10-05T05:20:04.397Z,100323.52
2022-10-05T05:21:22.860Z,100318.44
2022-10-05T05:22:50.485Z,100332.33
2022-10-05T05:23:56.438Z,100326.29
2022-10-05T05:25:07.838Z,100322.80
2022-10-05T05:26:30.463Z,100300.30
2022-10-05T05:28:00.668Z,100327.05
2022-10-05T05:29:30.393Z,100333.20
2022-10-05T05:30:51.947Z,100316.77
2022-10-05T05:32:03.971Z,100318.44
2022-10-05T05:33:21.896Z,100329.35
2022-10-05T05:34:38.193Z,100330.34
2022-10-05T05:36:01.899Z,100325.16
2022-10-05T05:37:20.912Z,100340.62
2022-10-05T05:38:27.490Z,100329.53
2022-10-05T05:39:48.637Z,100328.64
2022-10-05T05:40:57.586Z,100332.77
2022-10-05T05:42:03.190Z,100339.48
2022-10-05T05:43:13.285Z,100362.78
2022-10-05T05:44:18.883Z,100335.08
2022-10-05T05:45:44.546Z,100376.59
2022-10-05T05:47:04.770Z,100342.15
2022-10-05T05:48:29.809Z,100356.89
2022-10-05T05:49:52.049Z,100339.43
2022-10-05T05:51:02.033Z,100343.61
2022-10-05T05:52:19.345Z,100350.57
2022-10-05T05:53:30.971Z,100337.78
2022-10-05T05:55:56.589Z,100328.29
2022-10-05T05:57:14.178Z,100351.16
2022-10-05T05:58:29.055Z,100345.97
2022-10-05T05:59:44.613Z,100362.36
2022-10-05T06:00:58.787Z,100353.53
2022-10-05T06:02:08.141Z,100371.50
2022-10-05T06:03:26.289Z,100362.55
2022-10-05T06:04:35.103Z,100359.66
2022-10-05T06:05:52.629Z,100360.52
2022-10-05T06:06:57.640Z,100368.95
2022-10-05T06:08:12.720Z,100373.19
2022-10-05T06:09:24.794Z,100355.79
2022-10-05T06:10:43.703Z,100362.58
2022-10-05T06:12:02.041Z,100380.88
2022-10-05T06:13:08.864Z,100370.28
2022-10-05T06:14:20.595Z,100385.23
2022-10-05T06:15:39.219Z,100393.02
2022-10-05T06:16:52.506Z,100371.38
2022-10-05T06:17:58.440Z,100376.68
2022-10-05T06:19:06.953Z,100374.86
2022-10-05T06:20:13.189Z,100363.47
2022-10-05T06:21:23.104Z,100408.66
2022-10-05T06:22:31.765Z,100387.72
2022-10-05T06:23:40.524Z,100382.34
2022-10-05T06:25:03.630Z,100399.60
2022-10-05T06:26:34.337Z,100382.34
2022-10-05T06:28:00.813Z,100363.39
2022-10-05T06:29:09.783Z,100385.13
2022-10-05T06:30:15.434Z,100391.89
2022-10-05T06:31:49.926Z,100394.25
2022-10-05T06:33:14.420Z,100406.16
2022-10-05T06:34:48.173Z,100418.06
2022-10-05T06:36:13.817Z,100412.09
2022-10-05T06:37:25.325Z,100400.46
2022-10-05T06:38:52.988Z,100400.06
2022-10-05T06:40:11.356Z,100396.37
2022-10-05T06:41:16.958Z,100392.96
2022-10-05T06:42:41.846Z,100408.82
2022-10-05T06:45:23.360Z,100409.87
2022-10-05T06:46:45.933Z,100415.83
2022-10-05T06:47:56.449Z,100396.92
2022-10-05T06:49:12.938Z,100406.22
2022-10-05T06:50:38.354Z,100412.42
2022-10-05T06:52:04.054Z,100417.80
2022-10-05T06:53:17.606Z,100416.05
2022-10-05T06:54:33.089Z,100411.91
2022-10-05T06:55:50.976Z,100414.39
2022-10-05T06:57:15.585Z,100409.39
2022-10-05T06:58:31.317Z,100420.72
2022-10-05T06:59:53.856Z,100419.51
2022-10-05T07:01:05.571Z,100407.30
2022-10-05T07:02:21.011Z,100424.22
2022-10-05T07:03:46.853Z,100415.45
2022-10-05T07:05:10.887Z,100416.67
2022-10-05T07:06:17.685Z,100400.95
2022-10-05T07:07:30.356Z,100424.06
2022-10-05T07:08:52.221Z,100421.62
2022-10-05T07:10:07.103Z,100422.80
2022-10-05T07:11:21.892Z,100419.98
2022-10-05T07:12:56.166Z,100418.00
2022-10-05T07:14:14.583Z,100431.62
2022-10-05T07:15:33.432Z,100417.88
2022-10-05T07:16:42.075Z,100426.69
2022-10-05T07:17:51.326Z,100419.67
2022-10-05T07:19:13.812Z,100435.46
2022-10-05T07:20:26.003Z,100432.09
2022-10-05T07:21:34.778Z,100437.28
2022-10-05T07:22:49.591Z,100442.64
2022-10-05T07:24:30.535Z,100465.33
2022-10-05T07:25:42.750Z,100454.42
2022-10-05T07:26:49.923Z,100458.73
2022-10-05T07:28:14.754Z,100458.62
2022-10-05T07:29:26.433Z,100432.63
2022-10-05T07:30:31.962Z,100460.32
2022-10-05T07:31:57.954Z,100448.84
2022-10-05T07:33:15.256Z,100451.17
2022-10-05T07:34:21.355Z,100455.48
2022-10-05T07:35:33.907Z,100445.86
2022-10-05T07:36:39.899Z,100464.11
2022-10-05T07:37:45.422Z,100466.95
2022-10-05T07:38:59.860Z,100452.77
2022-10-05T07:40:06.049Z,100448.23
2022-10-05T07:41:25.867Z,100449.77
2022-10-05T07:42:57.823Z,100443.67
2022-10-05T07:44:12.568Z,100460.73
2022-10-05T07:47:12.300Z,100464.61
2022-10-05T07:48:23.896Z,100462.91
2022-10-05T07:49:49.620Z,100456.73
2022-10-05T07:51:08.111Z,100466.84
2022-10-05T07:52:22.928Z,100462.62
2022-10-05T07:53:37.618Z,100468.45
2022-10-05T07:55:03.325Z,100468.52
2022-10-05T07:56:11.008Z,100500.06
2022-10-05T07:57:50.131Z,100491.33
2022-10-05T07:59:00.076Z,100479.56
2022-10-05T08:00:08.686Z,100475.80
2022-10-05T08:01:30.364Z,100469.02
2022-10-05T08:02:44.027Z,100467.52
2022-10-05T08:04:08.367Z,100465.95
2022-10-05T08:05:22.861Z,100453.05
2022-10-05T08:06:44.758Z,100458.79
2022-10-05T08:07:50.567Z,100454.94
2022-10-05T08:08:56.181Z,100455.28
2022-10-05T08:10:27.673Z,100455.69
2022-10-05T08:11:50.056Z,100462.35
2022-10-05T08:13:27.861Z,100465.11
2022-10-05T08:14:36.297Z,100470.18
2022-10-05T08:15:43.932Z,100467.41
2022-10-05T08:16:54.453Z,100458.09
2022-10-05T08:18:03.137Z,100456.66
2022-10-05T08:19:23.658Z,100457.96
2022-10-05T08:20:45.902Z,100459.97
2022-10-05T08:21:57.325Z,100455.69
2022-10-05T08:23:02.891Z,100451.78
2022-10-05T08:24:24.299Z,100460.33
2022-10-05T08:25:32.939Z,100467.61
2022-10-05T08:26:44.395Z,100462.78
2022-10-05T08:27:58.493Z,100466.91
2022-10-05T08:29:14.015Z,100468.95
2022-10-05T08:30:16.786Z,100464.05
2022-10-05T08:31:25.033Z,100474.80
2022-10-05T08:32:56.502Z,100465.25
2022-10-05T08:34:05.069Z,100458.70
2022-10-05T08:35:16.650Z,100474.01
2022-10-05T08:36:22.366Z,100465.80
2022-10-05T08:37:30.887Z,100465.86
2022-10-05T08:38:34.095Z,100480.00
2022-10-05T08:39:42.896Z,100470.58
2022-10-05T08:41:05.954Z,100460.34
2022-10-05T08:42:32.630Z,100471.22
2022-10-05T08:43:41.253Z,100481.41
2022-10-05T08:45:16.147Z,100487.13
2022-10-05T08:46:37.333Z,100494.41
2022-10-05T08:47:58.506Z,100489.53
2022-10-05T08:49:34.862Z,100484.77
2022-10-05T08:50:50.142Z,100486.02
2022-10-05T08:52:12.435Z,100482.21
2022-10-05T08:53:33.289Z,100476.86
2022-10-05T08:54:41.919Z,100476.84
2022-10-05T08:55:52.979Z,100484.67
2022-10-05T08:57:28.723Z,100486.73
2022-10-05T08:58:57.606Z,100491.85
2022-10-05T09:00:15.414Z,100483.28
2022-10-05T09:02:54.900Z,100490.15
2022-10-05T09:04:06.874Z,100497.14
2022-10-05T09:05:30.807Z,100474.92
2022-10-05T09:06:58.446Z,100501.13
2022-10-05T09:08:40.148Z,100497.73
2022-10-05T09:09:57.221Z,100485.73
2022-10-05T09:11:18.355Z,100501.23
2022-10-05T09:12:58.073Z,100495.01
2022-10-05T09:14:22.653Z,100509.22
2022-10-05T09:15:46.799Z,100519.88
2022-10-05T09:17:26.265Z,100508.14
2022-10-05T09:18:55.282Z,100517.33
2022-10-05T09:20:09.723Z,100518.23
2022-10-05T09:21:34.731Z,100524.31
2022-10-05T09:22:46.773Z,100502.67
2022-10-05T09:23:52.271Z,100505.94
2022-10-05T09:25:09.552Z,100512.64
2022-10-05T09:26:44.974Z,100504.40
2022-10-05T09:27:58.602Z,100506.01
2022-10-05T09:29:24.293Z,100495.98
2022-10-05T09:30:48.387Z,100497.00
2022-10-05T09:31:56.952Z,100500.34
2022-10-05T09:33:19.291Z,100502.00
2022-10-05T09:34:49.016Z,100510.17
2022-10-05T09:36:14.711Z,100502.87
2022-10-05T09:37:42.063Z,100514.09
2022-10-05T09:38:59.677Z,100524.82
2022-10-05T09:40:08.730Z,100514.16
2022-10-05T09:41:34.087Z,100503.08
2022-10-05T09:43:13.075Z,100510.03
2022-10-05T09:44:36.768Z,100514.45
2022-10-05T09:46:08.925Z,100493.65
2022-10-05T09:47:39.812Z,100497.64
2022-10-05T09:49:11.633Z,100504.06
2022-10-05T09:50:41.331Z,100498.57
2022-10-05T09:51:59.124Z,100493.66
2022-10-05T09:53:30.729Z,100494.27
2022-10-05T09:54:54.677Z,100496.47
2022-10-05T09:56:12.791Z,100506.78
2022-10-05T09:57:42.442Z,100516.45
2022-10-05T09:59:04.841Z,100513.84
2022-10-05T10:00:25.837Z,100516.70
2022-10-05T10:01:50.959Z,100501.64
2022-10-05T10:03:28.813Z,100529.56
2022-10-05T10:05:01.953Z,100525.44
2022-10-05T10:06:07.587Z,100528.95
2022-10-05T10:07:16.456Z,100523.62
2022-10-05T10:08:45.894Z,100528.16
2022-10-05T10:10:25.823Z,100537.28
2022-10-05T10:11:37.591Z,100528.03
2022-10-05T10:12:51.005Z,100514.59
2022-10-05T10:14:16.723Z,100515.98
2022-10-05T10:15:28.236Z,100517.40
2022-10-05T10:16:36.855Z,100508.30
2022-10-05T10:18:05.089Z,100509.21
2022-10-05T10:19:42.835Z,100510.00
2022-10-05T10:21:11.390Z,100503.95
2022-10-05T10:22:20.584Z,100511.92
2022-10-05T10:23:42.004Z,100547.08
2022-10-05T10:25:02.865Z,100518.27
2022-10-05T10:26:30.966Z,100503.34
2022-10-05T10:28:59.396Z,100522.98
2022-10-05T10:30:27.549Z,100531.31
2022-10-05T10:31:59.237Z,100518.41
2022-10-05T10:33:21.640Z,100522.57
2022-10-05T10:35:02.507Z,100524.16
2022-10-05T10:36:09.177Z,100519.20
2022-10-05T10:37:20.890Z,100519.44
2022-10-05T10:38:43.480Z,100527.77
2022-10-05T10:39:54.952Z,100519.92
2022-10-05T10:41:19.207Z,100523.75
2022-10-05T10:42:43.207Z,100521.92
2022-10-05T10:44:23.332Z,100516.18
2022-10-05T10:45:48.808Z,100518.75
2022-10-05T10:47:06.342Z,100517.88
2022-10-05T10:48:30.632Z,100521.55
2022-10-05T10:50:02.185Z,100519.84
2022-10-05T10:51:19.779Z,100521.67
2022-10-05T10:52:31.144Z,100520.49
2022-10-05T10:53:39.439Z,100519.97
2022-10-05T10:54:48.075Z,100514.16
2022-10-05T10:56:08.846Z,100508.03
2022-10-05T10:57:24.610Z,100516.16
2022-10-05T10:58:47.758Z,100518.20
2022-10-05T11:00:21.116Z,100513.38
2022-10-05T11:01:41.889Z,100518.30
2022-10-05T11:03:09.026Z,100521.28
2022-10-05T11:04:30.011Z,100524.34
2022-10-05T11:05:45.002Z,100520.91
2022-10-05T11:07:09.708Z,100509.21
2022-10-05T11:08:39.550Z,100505.09
2022-10-05T11:11:26.742Z,100501.91
2022-10-05T11:12:41.818Z,100501.30
2022-10-05T11:13:58.832Z,100505.09
2022-10-05T11:15:27.132Z,100506.91
2022-10-05T11:16:39.135Z,100494.08
2022-10-05T11:17:48.205Z,100507.17
2022-10-05T11:19:05.741Z,100504.30
2022-10-05T11:22:09.294Z,100529.49
2022-10-05T11:23:21.270Z,100504.02
2022-10-05T11:24:42.234Z,100518.13
2022-10-05T11:26:07.910Z,100514.46
2022-10-05T11:27:25.743Z,100522.11
2022-10-05T11:28:34.565Z,100518.59
2022-10-05T11:29:57.187Z,100514.88
2022-10-05T11:31:15.788Z,100524.80
2022-10-05T11:32:21.410Z,100534.06
2022-10-05T11:33:57.386Z,100522.98
2022-10-05T11:35:25.671Z,100516.84
2022-10-05T11:36:46.746Z,100530.27
2022-10-05T11:37:58.838Z,100510.73
2022-10-05T11:39:23.873Z,100534.29
2022-10-05T11:41:01.623Z,100519.61
2022-10-05T11:42:11.198Z,100511.96
2022-10-05T11:43:33.194Z,100511.23
2022-10-05T11:44:45.843Z,100504.20
2022-10-05T11:45:54.282Z,100505.70
2022-10-05T11:47:11.948Z,100517.91
2022-10-05T11:48:52.625Z,100503.99
2022-10-05T11:50:18.641Z,100510.15
2022-10-05T11:51:37.469Z,100509.83
2022-10-05T11:52:53.827Z,100509.21
2022-10-05T11:54:16.703Z,100513.73
2022-10-05T11:55:40.837Z,100509.42
2022-10-05T11:58:07.345Z,100521.06
2022-10-05T11:59:28.831Z,100527.72
2022-10-05T12:00:50.329Z,100532.33
2022-10-05T12:02:05.697Z,100551.09
2022-10-05T12:03:28.912Z,100524.69
2022-10-05T12:04:52.472Z,100534.04
2022-10-05T12:06:01.319Z,100523.88
2022-10-05T12:07:16.163Z,100530.66
2022-10-05T12:08:30.931Z,100525.84
2022-10-05T12:09:53.659Z,100525.73
2022-10-05T12:11:05.735Z,100525.41
2022-10-05T12:12:11.851Z,100532.36
2022-10-05T12:13:32.409Z,100525.58
2022-10-05T12:14:44.516Z,100535.59
2022-10-05T12:15:59.120Z,100535.73
2022-10-05T12:17:26.931Z,100542.27
2022-10-05T12:18:35.444Z,100538.64
2022-10-05T12:19:41.348Z,100544.39
2022-10-05T12:20:53.047Z,100549.80
2022-10-05T12:22:04.791Z,100546.75
2022-10-05T12:23:21.957Z,100547.84
2022-10-05T12:24:36.707Z,100547.01
2022-10-05T12:25:54.006Z,100554.05
2022-10-05T12:27:18.791Z,100555.86
2022-10-05T12:28:24.318Z,100550.17
2022-10-05T12:29:39.076Z,100556.00
2022-10-05T12:30:57.554Z,100558.66
2022-10-05T12:32:21.417Z,100554.12
2022-10-05T12:33:35.823Z,100562.85
2022-10-05T12:34:45.446Z,100555.89
2022-10-05T12:37:55.279Z,100569.59
2022-10-05T12:39:03.751Z,100564.70
2022-10-05T12:40:24.626Z,100570.68
2022-10-05T12:41:43.562Z,100567.16
2022-10-05T12:43:07.299Z,100574.23
2022-10-05T12:44:25.026Z,100568.87
2022-10-05T12:45:54.696Z,100575.91
2022-10-05T12:47:05.923Z,100578.47
2022-10-05T12:48:11.644Z,100586.23
2022-10-05T12:49:49.079Z,100588.05
2022-10-05T12:51:17.053Z,100594.38
2022-10-05T12:52:56.005Z,100583.31
2022-10-05T12:54:09.208Z,100591.14
2022-10-05T12:55:36.631Z,100595.80
2022-10-05T12:56:53.677Z,100584.47
2022-10-05T12:59:56.768Z,100583.21
2022-10-05T13:01:03.476Z,100589.68
2022-10-05T13:02:13.169Z,100580.15
2022-10-05T13:03:27.836Z,100583.80
2022-10-05T13:05:00.474Z,100609.98
2022-10-05T13:06:24.972Z,100597.15
2022-10-05T13:07:37.662Z,100600.70
2022-10-05T13:08:58.905Z,100599.55
2022-10-05T13:10:13.917Z,100596.17
2022-10-05T13:11:33.030Z,100585.50
2022-10-05T13:13:02.761Z,100598.41
2022-10-05T13:14:14.989Z,100590.10
2022-10-05T13:15:32.833Z,100599.08
2022-10-05T13:16:59.943Z,100586.28
2022-10-05T13:18:27.260Z,100597.51
2022-10-05T13:19:36.079Z,100590.16
2022-10-05T13:20:54.302Z,100589.25
2022-10-05T13:22:05.950Z,100596.14
2022-10-05T13:23:14.342Z,100587.84
2022-10-05T13:24:39.475Z,100594.95
2022-10-05T13:25:54.459Z,100584.75
2022-10-05T13:27:06.538Z,100587.80
2022-10-05T13:28:18.003Z,100583.16
2022-10-05T13:29:39.513Z,100580.44
2022-10-05T13:30:48.044Z,100580.49
2022-10-05T13:32:13.070Z,100579.28
2022-10-05T13:34:35.588Z,100572.66
2022-10-05T13:35:44.091Z,100574.51
2022-10-05T13:36:57.003Z,100566.70
2022-10-05T13:38:23.038Z,100566.47
2022-10-05T13:39:34.841Z,100571.16
2022-10-05T13:41:04.894Z,100569.84
2022-10-05T13:42:16.664Z,100569.33
2022-10-05T13:43:28.263Z,100565.95
2022-10-05T13:44:39.709Z,100562.02
2022-10-05T13:45:57.647Z,100565.04
2022-10-05T13:47:09.459Z,100563.61
2022-10-05T13:48:21.127Z,100562.92
2022-10-05T13:49:26.131Z,100562.81
2022-10-05T13:50:33.617Z,100573.33
2022-10-05T13:51:42.682Z,100569.08
2022-10-05T13:52:51.867Z,100579.13
2022-10-05T13:54:14.315Z,100585.52
2022-10-05T13:55:49.388Z,100580.30
2022-10-05T13:56:55.475Z,100582.53
2022-10-05T13:58:03.877Z,100581.55
2022-10-05T13:59:21.939Z,100580.91
2022-10-05T14:00:27.112Z,100602.88
2022-10-05T14:01:45.494Z,100582.95
2022-10-05T14:02:54.277Z,100594.22
2022-10-05T14:04:20.679Z,100592.16
2022-10-05T14:05:28.808Z,100587.33
2022-10-05T14:06:34.640Z,100582.06
2022-10-05T14:07:49.117Z,100592.11
2022-10-05T14:08:53.440Z,100585.61
2022-10-05T14:09:58.467Z,100590.23
2022-10-05T14:11:09.936Z,100593.75
2022-10-05T14:12:15.261Z,100588.77
2022-10-05T14:13:36.090Z,100580.05
2022-10-05T14:14:47.732Z,100586.58
2022-10-05T14:16:02.360Z,100591.87
2022-10-05T14:17:08.988Z,100582.34
2022-10-05T14:18:25.724Z,100580.56
2022-10-05T14:19:31.213Z,100573.88
2022-10-05T14:20:33.329Z,100587.66
2022-10-05T14:22:04.213Z,100580.52
2022-10-05T14:23:22.269Z,100586.58
2022-10-05T14:24:45.872Z,100583.91
2022-10-05T14:25:38.296Z,100586.06
2022-10-05T14:26:42.585Z,100577.75
2022-10-05T14:28:00.816Z,100578.75
2022-10-05T14:29:20.229Z,100579.58
2022-10-05T14:30:25.454Z,100586.59
2022-10-05T14:31:36.970Z,100586.31
2022-10-05T14:33:07.118Z,100594.94
2022-10-05T14:34:29.433Z,100587.75
2022-10-05T14:35:50.229Z,100583.63
2022-10-05T14:37:02.138Z,100583.45
2022-10-05T14:38:26.198Z,100594.95
2022-10-05T14:39:31.673Z,100593.36
2022-10-05T14:40:38.509Z,100593.09
2022-10-05T14:41:49.049Z,100587.87
2022-10-05T14:42:52.414Z,100584.05
2022-10-05T14:44:10.595Z,100589.27
2022-10-05T14:45:15.881Z,100590.45
2022-10-05T14:46:25.111Z,100589.94
2022-10-05T14:47:28.733Z,100586.20
2022-10-05T14:48:42.386Z,100598.30
2022-10-05T14:49:53.860Z,100596.36
2022-10-05T14:50:58.888Z,100595.14
2022-10-05T14:52:22.590Z,100592.42
2022-10-05T14:53:28.474Z,100592.53
2022-10-05T14:54:43.193Z,100603.30
2022-10-05T14:56:08.195Z,100591.06
2022-10-05T14:57:39.244Z,100599.19
2022-10-05T14:58:58.721Z,100594.98